sensor_id;sensor_type;location;lat;lon;timestamp;temperature;humidity
28087;DHT22;15392;48.912;8.380;2022-08-03T00:01:58;27.90;35.60
28087;DHT22;15392;48.912;8.380;2022-08-03T00:04:24;27.80;35.50
28087;DHT22;15392;48.912;8.380;2022-08-03T00:06:50;27.80;35.60
28087;DHT22;15392;48.912;8.380;2022-08-03T00:09:15;27.70;35.60
28087;DHT22;15392;48.912;8.380;2022-08-03T00:11:41;27.70;35.60
28087;DHT22;15392;48.912;8.380;2022-08-03T00:14:08;27.60;35.70
28087;DHT22;15392;48.912;8.380;2022-08-03T00:16:34;27.60;35.70
28087;DHT22;15392;48.912;8.380;2022-08-03T00:19:00;27.60;35.80
28087;DHT22;15392;48.912;8.380;2022-08-03T00:21:26;27.60;35.70
28087;DHT22;15392;48.912;8.380;2022-08-03T00:23:52;27.50;35.80
28087;DHT22;15392;48.912;8.380;2022-08-03T00:26:19;27.50;36.00
28087;DHT22;15392;48.912;8.380;2022-08-03T00:28:45;27.50;35.80
28087;DHT22;15392;48.912;8.380;2022-08-03T00:31:11;27.50;35.80
28087;DHT22;15392;48.912;8.380;2022-08-03T00:33:37;27.40;35.80
28087;DHT22;15392;48.912;8.380;2022-08-03T00:36:03;27.40;35.90
28087;DHT22;15392;48.912;8.380;2022-08-03T00:38:29;27.40;35.90
28087;DHT22;15392;48.912;8.380;2022-08-03T00:40:54;27.40;35.90
28087;DHT22;15392;48.912;8.380;2022-08-03T00:43:24;27.40;36.00
28087;DHT22;15392;48.912;8.380;2022-08-03T00:45:51;27.30;36.10
28087;DHT22;15392;48.912;8.380;2022-08-03T00:48:19;27.30;36.10
28087;DHT22;15392;48.912;8.380;2022-08-03T00:50:45;27.30;36.10
28087;DHT22;15392;48.912;8.380;2022-08-03T00:53:13;27.30;36.20
28087;DHT22;15392;48.912;8.380;2022-08-03T00:55:39;27.30;36.10
28087;DHT22;15392;48.912;8.380;2022-08-03T00:58:07;27.30;36.20
28087;DHT22;15392;48.912;8.380;2022-08-03T01:00:35;27.30;36.20
28087;DHT22;15392;48.912;8.380;2022-08-03T01:03:04;27.30;36.20
28087;DHT22;15392;48.912;8.380;2022-08-03T01:09:05;27.20;36.40
28087;DHT22;15392;48.912;8.380;2022-08-03T01:11:48;27.10;36.40
28087;DHT22;15392;48.912;8.380;2022-08-03T01:14:38;27.10;36.50
28087;DHT22;15392;48.912;8.380;2022-08-03T01:17:24;27.10;36.50
28087;DHT22;15392;48.912;8.380;2022-08-03T01:20:12;27.00;36.80
28087;DHT22;15392;48.912;8.380;2022-08-03T01:31:38;26.90;36.30
28087;DHT22;15392;48.912;8.380;2022-08-03T01:34:10;26.80;36.80
28087;DHT22;15392;48.912;8.380;2022-08-03T01:36:43;26.70;36.50
28087;DHT22;15392;48.912;8.380;2022-08-03T01:39:15;26.70;36.90
28087;DHT22;15392;48.912;8.380;2022-08-03T01:41:52;26.70;36.50
28087;DHT22;15392;48.912;8.380;2022-08-03T01:44:29;26.70;36.70
28087;DHT22;15392;48.912;8.380;2022-08-03T01:46:58;26.60;36.90
28087;DHT22;15392;48.912;8.380;2022-08-03T01:49:26;26.60;36.80
28087;DHT22;15392;48.912;8.380;2022-08-03T01:51:53;26.60;36.60
28087;DHT22;15392;48.912;8.380;2022-08-03T01:54:20;26.60;36.60
28087;DHT22;15392;48.912;8.380;2022-08-03T01:56:50;26.60;36.70
28087;DHT22;15392;48.912;8.380;2022-08-03T01:59:18;26.50;36.70
28087;DHT22;15392;48.912;8.380;2022-08-03T02:01:45;26.50;36.70
28087;DHT22;15392;48.912;8.380;2022-08-03T02:04:15;26.50;36.70
28087;DHT22;15392;48.912;8.380;2022-08-03T02:06:44;26.40;36.70
28087;DHT22;15392;48.912;8.380;2022-08-03T02:09:13;26.40;36.80
28087;DHT22;15392;48.912;8.380;2022-08-03T02:11:39;26.40;36.80
28087;DHT22;15392;48.912;8.380;2022-08-03T02:14:07;26.40;36.90
28087;DHT22;15392;48.912;8.380;2022-08-03T02:16:34;26.30;36.80
28087;DHT22;15392;48.912;8.380;2022-08-03T02:19:04;26.30;36.90
28087;DHT22;15392;48.912;8.380;2022-08-03T02:21:35;26.30;36.90
28087;DHT22;15392;48.912;8.380;2022-08-03T02:24:02;26.20;36.80
28087;DHT22;15392;48.912;8.380;2022-08-03T02:26:30;26.20;36.70
28087;DHT22;15392;48.912;8.380;2022-08-03T02:29:02;26.20;36.90
28087;DHT22;15392;48.912;8.380;2022-08-03T02:31:33;26.20;37.30
28087;DHT22;15392;48.912;8.380;2022-08-03T02:34:05;26.10;37.00
28087;DHT22;15392;48.912;8.380;2022-08-03T02:36:36;26.10;37.00
28087;DHT22;15392;48.912;8.380;2022-08-03T02:39:04;26.10;37.10
28087;DHT22;15392;48.912;8.380;2022-08-03T02:41:42;26.00;37.00
28087;DHT22;15392;48.912;8.380;2022-08-03T02:44:12;26.00;37.00
28087;DHT22;15392;48.912;8.380;2022-08-03T02:46:43;26.00;37.00
28087;DHT22;15392;48.912;8.380;2022-08-03T02:49:13;26.00;37.20
28087;DHT22;15392;48.912;8.380;2022-08-03T02:51:41;26.00;37.10
28087;DHT22;15392;48.912;8.380;2022-08-03T02:54:08;26.00;37.10
28087;DHT22;15392;48.912;8.380;2022-08-03T02:56:36;25.90;37.00
28087;DHT22;15392;48.912;8.380;2022-08-03T02:59:03;25.90;37.10
28087;DHT22;15392;48.912;8.380;2022-08-03T03:01:30;25.90;37.10
28087;DHT22;15392;48.912;8.380;2022-08-03T03:03:57;25.90;37.10
28087;DHT22;15392;48.912;8.380;2022-08-03T03:06:24;25.90;37.10
28087;DHT22;15392;48.912;8.380;2022-08-03T03:08:52;25.90;37.20
28087;DHT22;15392;48.912;8.380;2022-08-03T03:11:20;25.90;37.30
28087;DHT22;15392;48.912;8.380;2022-08-03T03:13:48;25.80;37.10
28087;DHT22;15392;48.912;8.380;2022-08-03T03:16:15;25.80;37.20
28087;DHT22;15392;48.912;8.380;2022-08-03T03:18:43;25.80;37.10
28087;DHT22;15392;48.912;8.380;2022-08-03T03:21:10;25.80;37.10
28087;DHT22;15392;48.912;8.380;2022-08-03T03:23:39;25.80;37.30
28087;DHT22;15392;48.912;8.380;2022-08-03T03:26:06;25.70;37.30
28087;DHT22;15392;48.912;8.380;2022-08-03T03:28:32;25.70;37.30
28087;DHT22;15392;48.912;8.380;2022-08-03T03:31:01;25.70;37.30
28087;DHT22;15392;48.912;8.380;2022-08-03T03:33:28;25.70;37.40
28087;DHT22;15392;48.912;8.380;2022-08-03T03:35:53;25.60;37.40
28087;DHT22;15392;48.912;8.380;2022-08-03T03:38:20;25.60;37.50
28087;DHT22;15392;48.912;8.380;2022-08-03T03:40:46;25.60;37.70
28087;DHT22;15392;48.912;8.380;2022-08-03T03:43:12;25.60;37.70
28087;DHT22;15392;48.912;8.380;2022-08-03T03:45:41;25.60;37.60
28087;DHT22;15392;48.912;8.380;2022-08-03T03:48:08;25.50;37.70
28087;DHT22;15392;48.912;8.380;2022-08-03T03:50:35;25.50;37.60
28087;DHT22;15392;48.912;8.380;2022-08-03T03:53:03;25.50;37.70
28087;DHT22;15392;48.912;8.380;2022-08-03T03:55:29;25.50;37.70
28087;DHT22;15392;48.912;8.380;2022-08-03T03:57:55;25.40;37.50
28087;DHT22;15392;48.912;8.380;2022-08-03T04:00:22;25.40;37.60
28087;DHT22;15392;48.912;8.380;2022-08-03T04:02:48;25.40;37.80
28087;DHT22;15392;48.912;8.380;2022-08-03T04:05:14;25.40;37.80
28087;DHT22;15392;48.912;8.380;2022-08-03T04:08:09;25.40;37.90
28087;DHT22;15392;48.912;8.380;2022-08-03T04:16:56;25.30;37.70
28087;DHT22;15392;48.912;8.380;2022-08-03T04:19:34;25.30;37.90
28087;DHT22;15392;48.912;8.380;2022-08-03T04:22:05;25.30;38.50
28087;DHT22;15392;48.912;8.380;2022-08-03T04:24:38;25.30;38.10
28087;DHT22;15392;48.912;8.380;2022-08-03T04:27:08;25.30;38.40
28087;DHT22;15392;48.912;8.380;2022-08-03T04:29:38;25.20;38.10
28087;DHT22;15392;48.912;8.380;2022-08-03T04:32:06;25.30;38.30
28087;DHT22;15392;48.912;8.380;2022-08-03T04:34:32;25.30;38.60
28087;DHT22;15392;48.912;8.380;2022-08-03T04:37:01;25.20;37.80
28087;DHT22;15392;48.912;8.380;2022-08-03T04:39:31;25.20;38.20
28087;DHT22;15392;48.912;8.380;2022-08-03T04:42:01;25.20;38.10
28087;DHT22;15392;48.912;8.380;2022-08-03T04:44:30;25.20;38.60
28087;DHT22;15392;48.912;8.380;2022-08-03T04:47:01;25.20;38.40
28087;DHT22;15392;48.912;8.380;2022-08-03T04:49:28;25.20;38.40
28087;DHT22;15392;48.912;8.380;2022-08-03T04:51:54;25.10;38.50
28087;DHT22;15392;48.912;8.380;2022-08-03T04:54:21;25.20;38.60
28087;DHT22;15392;48.912;8.380;2022-08-03T04:56:47;25.20;38.60
28087;DHT22;15392;48.912;8.380;2022-08-03T04:59:12;25.10;38.60
28087;DHT22;15392;48.912;8.380;2022-08-03T05:01:39;25.20;38.80
28087;DHT22;15392;48.912;8.380;2022-08-03T05:04:06;25.20;38.80
28087;DHT22;15392;48.912;8.380;2022-08-03T05:06:32;25.20;39.20
28087;DHT22;15392;48.912;8.380;2022-08-03T05:08:58;25.20;39.00
28087;DHT22;15392;48.912;8.380;2022-08-03T05:11:23;25.20;39.00
28087;DHT22;15392;48.912;8.380;2022-08-03T05:13:49;25.20;38.80
28087;DHT22;15392;48.912;8.380;2022-08-03T05:16:15;25.20;38.80
28087;DHT22;15392;48.912;8.380;2022-08-03T05:18:42;25.20;38.80
28087;DHT22;15392;48.912;8.380;2022-08-03T05:21:09;25.20;38.80
28087;DHT22;15392;48.912;8.380;2022-08-03T05:23:35;25.30;39.00
28087;DHT22;15392;48.912;8.380;2022-08-03T05:26:02;25.30;39.00
28087;DHT22;15392;48.912;8.380;2022-08-03T05:28:28;25.30;38.90
28087;DHT22;15392;48.912;8.380;2022-08-03T05:30:54;25.30;39.00
28087;DHT22;15392;48.912;8.380;2022-08-03T05:33:19;25.30;38.90
28087;DHT22;15392;48.912;8.380;2022-08-03T05:35:48;25.40;39.00
28087;DHT22;15392;48.912;8.380;2022-08-03T05:38:13;25.40;39.20
28087;DHT22;15392;48.912;8.380;2022-08-03T05:40:39;25.40;39.10
28087;DHT22;15392;48.912;8.380;2022-08-03T05:43:05;25.40;39.00
28087;DHT22;15392;48.912;8.380;2022-08-03T05:45:31;25.40;38.90
28087;DHT22;15392;48.912;8.380;2022-08-03T05:47:57;25.50;38.80
28087;DHT22;15392;48.912;8.380;2022-08-03T05:50:23;25.50;38.90
28087;DHT22;15392;48.912;8.380;2022-08-03T05:52:48;25.60;38.90
28087;DHT22;15392;48.912;8.380;2022-08-03T05:55:17;25.50;38.90
28087;DHT22;15392;48.912;8.380;2022-08-03T05:57:45;25.60;39.10
28087;DHT22;15392;48.912;8.380;2022-08-03T06:00:12;25.70;39.20
28087;DHT22;15392;48.912;8.380;2022-08-03T06:02:38;25.70;39.20
28087;DHT22;15392;48.912;8.380;2022-08-03T06:05:05;25.70;39.20
28087;DHT22;15392;48.912;8.380;2022-08-03T06:07:32;25.70;39.20
28087;DHT22;15392;48.912;8.380;2022-08-03T06:09:58;25.80;39.20
28087;DHT22;15392;48.912;8.380;2022-08-03T06:12:32;25.90;39.20
28087;DHT22;15392;48.912;8.380;2022-08-03T06:15:02;25.90;39.10
28087;DHT22;15392;48.912;8.380;2022-08-03T06:17:29;26.00;39.10
28087;DHT22;15392;48.912;8.380;2022-08-03T06:19:57;26.10;39.10
28087;DHT22;15392;48.912;8.380;2022-08-03T06:22:23;26.10;39.10
28087;DHT22;15392;48.912;8.380;2022-08-03T06:24:49;26.20;39.10
28087;DHT22;15392;48.912;8.380;2022-08-03T06:27:18;26.30;39.10
28087;DHT22;15392;48.912;8.380;2022-08-03T06:29:44;26.40;39.40
28087;DHT22;15392;48.912;8.380;2022-08-03T06:32:10;26.40;39.10
28087;DHT22;15392;48.912;8.380;2022-08-03T06:34:36;26.50;39.20
28087;DHT22;15392;48.912;8.380;2022-08-03T06:37:05;26.50;39.30
28087;DHT22;15392;48.912;8.380;2022-08-03T06:39:31;26.60;39.20
28087;DHT22;15392;48.912;8.380;2022-08-03T06:41:56;26.70;39.20
28087;DHT22;15392;48.912;8.380;2022-08-03T06:44:23;26.70;39.20
28087;DHT22;15392;48.912;8.380;2022-08-03T06:46:49;26.80;39.20
28087;DHT22;15392;48.912;8.380;2022-08-03T06:49:17;26.90;39.20
28087;DHT22;15392;48.912;8.380;2022-08-03T06:51:47;26.90;39.10
28087;DHT22;15392;48.912;8.380;2022-08-03T06:54:15;27.00;39.20
28087;DHT22;15392;48.912;8.380;2022-08-03T06:56:41;27.10;39.20
28087;DHT22;15392;48.912;8.380;2022-08-03T06:59:09;27.10;39.20
28087;DHT22;15392;48.912;8.380;2022-08-03T07:01:35;27.20;39.20
28087;DHT22;15392;48.912;8.380;2022-08-03T07:04:01;27.30;39.60
28087;DHT22;15392;48.912;8.380;2022-08-03T07:06:26;27.30;38.70
28087;DHT22;15392;48.912;8.380;2022-08-03T07:08:52;27.40;38.50
28087;DHT22;15392;48.912;8.380;2022-08-03T07:11:18;27.50;38.40
28087;DHT22;15392;48.912;8.380;2022-08-03T07:13:44;27.50;38.40
28087;DHT22;15392;48.912;8.380;2022-08-03T07:16:11;27.60;38.30
28087;DHT22;15392;48.912;8.380;2022-08-03T07:18:38;27.70;38.30
28087;DHT22;15392;48.912;8.380;2022-08-03T07:21:04;27.80;38.30
28087;DHT22;15392;48.912;8.380;2022-08-03T07:23:30;27.80;38.00
28087;DHT22;15392;48.912;8.380;2022-08-03T07:25:55;27.90;38.00
28087;DHT22;15392;48.912;8.380;2022-08-03T07:28:21;28.00;37.90
28087;DHT22;15392;48.912;8.380;2022-08-03T07:30:47;28.00;37.60
28087;DHT22;15392;48.912;8.380;2022-08-03T07:33:13;28.10;37.60
28087;DHT22;15392;48.912;8.380;2022-08-03T07:35:39;28.20;37.40
28087;DHT22;15392;48.912;8.380;2022-08-03T07:38:05;28.20;37.40
28087;DHT22;15392;48.912;8.380;2022-08-03T07:40:31;28.30;37.10
28087;DHT22;15392;48.912;8.380;2022-08-03T07:43:01;28.40;37.10
28087;DHT22;15392;48.912;8.380;2022-08-03T07:45:29;28.50;37.20
28087;DHT22;15392;48.912;8.380;2022-08-03T07:47:57;28.50;37.20
28087;DHT22;15392;48.912;8.380;2022-08-03T07:50:23;28.60;37.10
28087;DHT22;15392;48.912;8.380;2022-08-03T07:52:49;28.70;37.10
28087;DHT22;15392;48.912;8.380;2022-08-03T07:55:22;28.70;37.10
28087;DHT22;15392;48.912;8.380;2022-08-03T07:58:22;28.80;36.90
28087;DHT22;15392;48.912;8.380;2022-08-03T08:00:49;28.90;37.10
28087;DHT22;15392;48.912;8.380;2022-08-03T08:03:17;29.00;37.00
28087;DHT22;15392;48.912;8.380;2022-08-03T08:05:44;29.00;37.50
28087;DHT22;15392;48.912;8.380;2022-08-03T08:08:09;29.10;37.00
28087;DHT22;15392;48.912;8.380;2022-08-03T08:10:35;29.20;37.00
28087;DHT22;15392;48.912;8.380;2022-08-03T08:13:02;29.30;37.00
28087;DHT22;15392;48.912;8.380;2022-08-03T08:15:29;29.50;37.00
28087;DHT22;15392;48.912;8.380;2022-08-03T08:17:59;29.50;36.90
28087;DHT22;15392;48.912;8.380;2022-08-03T08:20:29;29.60;36.80
28087;DHT22;15392;48.912;8.380;2022-08-03T08:23:05;29.70;36.70
28087;DHT22;15392;48.912;8.380;2022-08-03T08:25:35;29.80;37.30
28087;DHT22;15392;48.912;8.380;2022-08-03T08:28:03;29.90;36.60
28087;DHT22;15392;48.912;8.380;2022-08-03T08:30:31;30.00;36.60
28087;DHT22;15392;48.912;8.380;2022-08-03T08:32:57;30.10;36.70
28087;DHT22;15392;48.912;8.380;2022-08-03T08:35:27;30.10;36.50
28087;DHT22;15392;48.912;8.380;2022-08-03T08:37:53;30.20;36.80
28087;DHT22;15392;48.912;8.380;2022-08-03T08:40:22;30.30;36.70
28087;DHT22;15392;48.912;8.380;2022-08-03T08:42:48;30.30;36.70
28087;DHT22;15392;48.912;8.380;2022-08-03T08:45:14;30.40;36.70
28087;DHT22;15392;48.912;8.380;2022-08-03T08:47:44;30.50;36.70
28087;DHT22;15392;48.912;8.380;2022-08-03T08:50:11;30.60;36.60
28087;DHT22;15392;48.912;8.380;2022-08-03T08:52:40;30.70;36.70
28087;DHT22;15392;48.912;8.380;2022-08-03T08:55:09;30.80;36.60
28087;DHT22;15392;48.912;8.380;2022-08-03T08:57:47;30.90;36.60
28087;DHT22;15392;48.912;8.380;2022-08-03T09:00:17;31.00;36.50
28087;DHT22;15392;48.912;8.380;2022-08-03T09:02:44;31.10;36.50
28087;DHT22;15392;48.912;8.380;2022-08-03T09:05:14;31.10;36.50
28087;DHT22;15392;48.912;8.380;2022-08-03T09:07:42;31.20;36.50
28087;DHT22;15392;48.912;8.380;2022-08-03T09:10:11;31.30;36.40
28087;DHT22;15392;48.912;8.380;2022-08-03T09:12:48;31.40;36.50
28087;DHT22;15392;48.912;8.380;2022-08-03T09:15:29;31.40;36.30
28087;DHT22;15392;48.912;8.380;2022-08-03T09:17:59;31.50;36.10
28087;DHT22;15392;48.912;8.380;2022-08-03T09:20:28;31.60;36.10
28087;DHT22;15392;48.912;8.380;2022-08-03T09:22:58;31.70;36.20
28087;DHT22;15392;48.912;8.380;2022-08-03T09:25:34;31.80;36.00
28087;DHT22;15392;48.912;8.380;2022-08-03T09:28:11;31.90;35.90
28087;DHT22;15392;48.912;8.380;2022-08-03T09:30:41;32.00;35.90
28087;DHT22;15392;48.912;8.380;2022-08-03T09:33:12;32.10;36.10
28087;DHT22;15392;48.912;8.380;2022-08-03T09:35:45;32.20;36.00
28087;DHT22;15392;48.912;8.380;2022-08-03T09:38:20;32.30;35.80
28087;DHT22;15392;48.912;8.380;2022-08-03T09:40:54;32.40;35.50
28087;DHT22;15392;48.912;8.380;2022-08-03T09:43:21;32.40;35.50
28087;DHT22;15392;48.912;8.380;2022-08-03T09:45:47;32.50;35.60
28087;DHT22;15392;48.912;8.380;2022-08-03T09:48:28;32.50;35.50
28087;DHT22;15392;48.912;8.380;2022-08-03T09:51:03;32.60;35.10
28087;DHT22;15392;48.912;8.380;2022-08-03T09:53:43;32.60;35.40
28087;DHT22;15392;48.912;8.380;2022-08-03T09:56:10;32.70;35.60
28087;DHT22;15392;48.912;8.380;2022-08-03T09:58:45;32.80;35.30
28087;DHT22;15392;48.912;8.380;2022-08-03T10:01:11;32.80;35.20
28087;DHT22;15392;48.912;8.380;2022-08-03T10:03:39;32.80;35.30
28087;DHT22;15392;48.912;8.380;2022-08-03T10:06:15;32.80;35.20
28087;DHT22;15392;48.912;8.380;2022-08-03T10:08:45;33.00;34.90
28087;DHT22;15392;48.912;8.380;2022-08-03T10:11:11;33.00;35.20
28087;DHT22;15392;48.912;8.380;2022-08-03T10:13:37;33.00;35.10
28087;DHT22;15392;48.912;8.380;2022-08-03T10:16:04;33.10;35.00
28087;DHT22;15392;48.912;8.380;2022-08-03T10:18:31;33.10;35.00
28087;DHT22;15392;48.912;8.380;2022-08-03T10:21:02;33.20;34.90
28087;DHT22;15392;48.912;8.380;2022-08-03T10:23:34;33.30;34.50
28087;DHT22;15392;48.912;8.380;2022-08-03T10:26:02;33.30;34.90
28087;DHT22;15392;48.912;8.380;2022-08-03T10:28:40;33.40;34.70
28087;DHT22;15392;48.912;8.380;2022-08-03T10:31:09;33.40;34.30
28087;DHT22;15392;48.912;8.380;2022-08-03T10:33:38;33.50;34.80
28087;DHT22;15392;48.912;8.380;2022-08-03T10:36:07;33.50;34.60
28087;DHT22;15392;48.912;8.380;2022-08-03T10:38:44;33.60;34.80
28087;DHT22;15392;48.912;8.380;2022-08-03T10:41:21;33.60;34.20
28087;DHT22;15392;48.912;8.380;2022-08-03T10:43:49;33.70;34.40
28087;DHT22;15392;48.912;8.380;2022-08-03T10:46:38;33.70;34.50
28087;DHT22;15392;48.912;8.380;2022-08-03T10:49:05;33.80;34.60
28087;DHT22;15392;48.912;8.380;2022-08-03T10:51:32;33.80;34.30
28087;DHT22;15392;48.912;8.380;2022-08-03T10:53:58;33.90;34.30
28087;DHT22;15392;48.912;8.380;2022-08-03T10:56:37;33.90;34.20
28087;DHT22;15392;48.912;8.380;2022-08-03T11:02:15;34.00;33.70
28087;DHT22;15392;48.912;8.380;2022-08-03T11:04:42;34.00;34.30
28087;DHT22;15392;48.912;8.380;2022-08-03T11:07:21;34.10;34.30
28087;DHT22;15392;48.912;8.380;2022-08-03T11:09:59;34.10;34.00
28087;DHT22;15392;48.912;8.380;2022-08-03T11:12:30;34.20;34.00
28087;DHT22;15392;48.912;8.380;2022-08-03T11:15:07;34.10;34.00
28087;DHT22;15392;48.912;8.380;2022-08-03T11:17:34;34.20;33.80
28087;DHT22;15392;48.912;8.380;2022-08-03T11:20:03;34.30;34.10
28087;DHT22;15392;48.912;8.380;2022-08-03T11:22:47;34.30;34.10
28087;DHT22;15392;48.912;8.380;2022-08-03T11:25:17;34.40;33.10
28087;DHT22;15392;48.912;8.380;2022-08-03T11:27:46;34.40;33.80
28087;DHT22;15392;48.912;8.380;2022-08-03T11:35:32;34.50;33.60
28087;DHT22;15392;48.912;8.380;2022-08-03T11:38:28;34.50;32.80
28087;DHT22;15392;48.912;8.380;2022-08-03T11:40:57;34.50;32.60
28087;DHT22;15392;48.912;8.380;2022-08-03T11:46:04;34.60;33.60
28087;DHT22;15392;48.912;8.380;2022-08-03T11:48:49;34.70;33.40
28087;DHT22;15392;48.912;8.380;2022-08-03T11:51:37;34.70;33.40
28087;DHT22;15392;48.912;8.380;2022-08-03T11:54:18;34.70;33.60
28087;DHT22;15392;48.912;8.380;2022-08-03T11:56:48;34.80;33.10
28087;DHT22;15392;48.912;8.380;2022-08-03T11:59:15;34.80;33.40
28087;DHT22;15392;48.912;8.380;2022-08-03T12:01:44;34.80;33.30
28087;DHT22;15392;48.912;8.380;2022-08-03T12:04:11;34.90;31.80
28087;DHT22;15392;48.912;8.380;2022-08-03T12:06:36;34.90;33.30
28087;DHT22;15392;48.912;8.380;2022-08-03T12:09:21;35.00;33.30
28087;DHT22;15392;48.912;8.380;2022-08-03T12:11:50;35.00;33.20
28087;DHT22;15392;48.912;8.380;2022-08-03T12:14:17;35.10;33.30
28087;DHT22;15392;48.912;8.380;2022-08-03T12:16:47;35.10;33.20
28087;DHT22;15392;48.912;8.380;2022-08-03T12:19:13;35.20;33.00
28087;DHT22;15392;48.912;8.380;2022-08-03T12:21:49;35.20;33.20
28087;DHT22;15392;48.912;8.380;2022-08-03T12:24:15;35.30;32.70
28087;DHT22;15392;48.912;8.380;2022-08-03T12:26:49;35.40;33.10
28087;DHT22;15392;48.912;8.380;2022-08-03T12:29:19;35.50;32.60
28087;DHT22;15392;48.912;8.380;2022-08-03T12:31:46;35.50;32.80
28087;DHT22;15392;48.912;8.380;2022-08-03T12:34:14;35.60;33.10
28087;DHT22;15392;48.912;8.380;2022-08-03T12:36:54;35.70;32.60
28087;DHT22;15392;48.912;8.380;2022-08-03T12:39:25;35.90;32.20
28087;DHT22;15392;48.912;8.380;2022-08-03T12:41:55;35.90;32.20
28087;DHT22;15392;48.912;8.380;2022-08-03T12:44:34;36.10;32.90
28087;DHT22;15392;48.912;8.380;2022-08-03T12:47:02;36.30;32.10
28087;DHT22;15392;48.912;8.380;2022-08-03T12:52:47;36.50;31.70
28087;DHT22;15392;48.912;8.380;2022-08-03T12:55:19;36.70;32.50
28087;DHT22;15392;48.912;8.380;2022-08-03T12:57:45;36.90;31.60
28087;DHT22;15392;48.912;8.380;2022-08-03T13:00:13;37.10;32.30
28087;DHT22;15392;48.912;8.380;2022-08-03T13:02:40;37.20;32.10
28087;DHT22;15392;48.912;8.380;2022-08-03T13:05:13;37.40;32.10
28087;DHT22;15392;48.912;8.380;2022-08-03T13:07:41;37.50;31.40
28087;DHT22;15392;48.912;8.380;2022-08-03T13:10:25;37.70;31.80
28087;DHT22;15392;48.912;8.380;2022-08-03T13:12:53;37.80;31.50
28087;DHT22;15392;48.912;8.380;2022-08-03T13:15:22;38.00;31.60
28087;DHT22;15392;48.912;8.380;2022-08-03T13:17:47;38.10;31.40
28087;DHT22;15392;48.912;8.380;2022-08-03T13:20:13;38.20;31.20
28087;DHT22;15392;48.912;8.380;2022-08-03T13:22:48;38.30;31.00
28087;DHT22;15392;48.912;8.380;2022-08-03T13:25:17;38.50;30.00
28087;DHT22;15392;48.912;8.380;2022-08-03T13:27:43;38.50;31.50
28087;DHT22;15392;48.912;8.380;2022-08-03T13:30:09;38.60;30.80
28087;DHT22;15392;48.912;8.380;2022-08-03T13:32:35;38.70;30.70
28087;DHT22;15392;48.912;8.380;2022-08-03T13:35:04;38.70;30.60
28087;DHT22;15392;48.912;8.380;2022-08-03T13:37:36;38.80;30.50
28087;DHT22;15392;48.912;8.380;2022-08-03T13:40:05;38.90;30.40
28087;DHT22;15392;48.912;8.380;2022-08-03T13:42:34;38.90;30.40
28087;DHT22;15392;48.912;8.380;2022-08-03T13:45:02;38.90;30.70
28087;DHT22;15392;48.912;8.380;2022-08-03T13:47:30;38.90;30.50
28087;DHT22;15392;48.912;8.380;2022-08-03T13:50:17;38.90;30.30
28087;DHT22;15392;48.912;8.380;2022-08-03T13:52:50;38.90;29.50
28087;DHT22;15392;48.912;8.380;2022-08-03T13:55:16;38.90;30.60
28087;DHT22;15392;48.912;8.380;2022-08-03T13:57:42;38.90;30.50
28087;DHT22;15392;48.912;8.380;2022-08-03T14:00:08;38.90;30.30
28087;DHT22;15392;48.912;8.380;2022-08-03T14:02:35;38.90;30.80
28087;DHT22;15392;48.912;8.380;2022-08-03T14:05:01;38.80;30.10
28087;DHT22;15392;48.912;8.380;2022-08-03T14:07:27;38.80;29.80
28087;DHT22;15392;48.912;8.380;2022-08-03T14:09:52;38.70;30.00
28087;DHT22;15392;48.912;8.380;2022-08-03T14:12:18;38.70;30.10
28087;DHT22;15392;48.912;8.380;2022-08-03T14:14:44;38.60;30.20
28087;DHT22;15392;48.912;8.380;2022-08-03T14:17:15;38.60;30.10
28087;DHT22;15392;48.912;8.380;2022-08-03T14:19:41;38.60;30.20
28087;DHT22;15392;48.912;8.380;2022-08-03T14:22:07;38.60;30.20
28087;DHT22;15392;48.912;8.380;2022-08-03T14:24:33;38.60;30.30
28087;DHT22;15392;48.912;8.380;2022-08-03T14:27:05;38.50;30.10
28087;DHT22;15392;48.912;8.380;2022-08-03T14:29:34;38.50;29.80
28087;DHT22;15392;48.912;8.380;2022-08-03T14:32:03;38.50;30.00
28087;DHT22;15392;48.912;8.380;2022-08-03T14:34:31;38.40;30.00
28087;DHT22;15392;48.912;8.380;2022-08-03T14:37:00;38.40;29.90
28087;DHT22;15392;48.912;8.380;2022-08-03T14:39:30;38.40;30.00
28087;DHT22;15392;48.912;8.380;2022-08-03T14:41:57;38.40;30.10
28087;DHT22;15392;48.912;8.380;2022-08-03T14:44:22;38.30;30.00
28087;DHT22;15392;48.912;8.380;2022-08-03T14:46:51;38.30;29.90
28087;DHT22;15392;48.912;8.380;2022-08-03T14:49:17;38.30;30.10
28087;DHT22;15392;48.912;8.380;2022-08-03T14:51:48;38.30;30.10
28087;DHT22;15392;48.912;8.380;2022-08-03T14:54:55;38.20;29.90
28087;DHT22;15392;48.912;8.380;2022-08-03T14:57:21;38.20;30.20
28087;DHT22;15392;48.912;8.380;2022-08-03T14:59:54;38.20;30.20
28087;DHT22;15392;48.912;8.380;2022-08-03T15:02:25;38.20;30.10
28087;DHT22;15392;48.912;8.380;2022-08-03T15:05:02;38.20;30.00
28087;DHT22;15392;48.912;8.380;2022-08-03T15:07:33;38.20;30.10
28087;DHT22;15392;48.912;8.380;2022-08-03T15:10:05;38.20;29.90
28087;DHT22;15392;48.912;8.380;2022-08-03T15:12:36;38.20;30.00
28087;DHT22;15392;48.912;8.380;2022-08-03T15:15:08;38.20;30.00
28087;DHT22;15392;48.912;8.380;2022-08-03T15:17:42;38.20;30.00
28087;DHT22;15392;48.912;8.380;2022-08-03T15:25:00;38.20;29.00
28087;DHT22;15392;48.912;8.380;2022-08-03T15:27:28;38.20;29.40
28087;DHT22;15392;48.912;8.380;2022-08-03T15:29:56;38.20;30.10
28087;DHT22;15392;48.912;8.380;2022-08-03T15:32:27;38.20;29.80
28087;DHT22;15392;48.912;8.380;2022-08-03T15:34:53;38.20;29.80
28087;DHT22;15392;48.912;8.380;2022-08-03T15:37:19;38.10;30.00
28087;DHT22;15392;48.912;8.380;2022-08-03T15:39:45;38.10;30.00
28087;DHT22;15392;48.912;8.380;2022-08-03T15:42:11;38.10;29.90
28087;DHT22;15392;48.912;8.380;2022-08-03T15:44:37;38.10;29.90
28087;DHT22;15392;48.912;8.380;2022-08-03T15:47:02;38.10;29.90
28087;DHT22;15392;48.912;8.380;2022-08-03T15:52:04;38.10;29.70
28087;DHT22;15392;48.912;8.380;2022-08-03T15:54:30;38.10;29.80
28087;DHT22;15392;48.912;8.380;2022-08-03T15:56:56;38.10;29.90
28087;DHT22;15392;48.912;8.380;2022-08-03T15:59:21;38.10;29.70
28087;DHT22;15392;48.912;8.380;2022-08-03T16:01:47;38.10;29.70
28087;DHT22;15392;48.912;8.380;2022-08-03T16:04:13;38.10;29.60
28087;DHT22;15392;48.912;8.380;2022-08-03T16:06:39;38.10;29.70
28087;DHT22;15392;48.912;8.380;2022-08-03T16:09:08;38.10;29.80
28087;DHT22;15392;48.912;8.380;2022-08-03T16:11:42;38.10;29.50
28087;DHT22;15392;48.912;8.380;2022-08-03T16:14:27;38.00;29.30
28087;DHT22;15392;48.912;8.380;2022-08-03T16:16:55;38.10;28.60
28087;DHT22;15392;48.912;8.380;2022-08-03T16:19:29;38.00;29.30
28087;DHT22;15392;48.912;8.380;2022-08-03T16:21:55;38.00;29.40
28087;DHT22;15392;48.912;8.380;2022-08-03T16:24:33;38.10;29.70